createdAt,value
2017-03-23T00:00:54.254Z,0
2017-03-23T00:02:04.190Z,0
2017-03-23T00:03:14.445Z,0
2017-03-23T00:04:24.698Z,0
2017-03-23T00:05:34.991Z,0
2017-03-23T00:06:45.253Z,0
2017-03-23T00:07:55.188Z,0
2017-03-23T00:09:04.809Z,0
2017-03-23T00:10:14.745Z,0
2017-03-23T00:11:24.678Z,0
2017-03-23T00:12:34.619Z,0
2017-03-23T00:13:44.563Z,0
2017-03-23T00:14:54.810Z,0
2017-03-23T00:16:05.060Z,0
2017-03-23T00:17:14.997Z,0
2017-03-23T00:18:24.934Z,0
2017-03-23T00:19:35.187Z,0
2017-03-23T00:20:44.814Z,0
2017-03-23T00:21:55.065Z,0
2017-03-23T00:23:05.000Z,0
2017-03-23T00:24:15.250Z,0
2017-03-23T00:25:25.181Z,0
2017-03-23T00:26:35.120Z,0
2017-03-23T00:27:45.062Z,0
2017-03-23T00:28:55.310Z,0
2017-03-23T00:30:04.929Z,0
2017-03-23T00:31:14.868Z,0
2017-03-23T00:32:24.805Z,0
2017-03-23T00:33:35.060Z,0
2017-03-23T00:34:44.996Z,0
2017-03-23T00:35:55.243Z,0
2017-03-23T00:37:05.494Z,0
2017-03-23T00:38:15.738Z,0
2017-03-23T00:39:25.985Z,0
2017-03-23T00:40:36.243Z,0
2017-03-23T00:41:46.178Z,0
2017-03-23T00:42:56.117Z,0
2017-03-23T00:44:06.371Z,0
2017-03-23T00:45:16.626Z,0
2017-03-23T00:46:26.879Z,0
2017-03-23T00:47:36.821Z,0
2017-03-23T00:48:46.755Z,0
2017-03-23T00:49:57.044Z,0
2017-03-23T00:51:07.298Z,0
2017-03-23T00:52:16.922Z,0
2017-03-23T00:53:27.169Z,0
2017-03-23T00:54:37.418Z,0
2017-03-23T00:55:47.669Z,0
2017-03-23T00:56:57.915Z,0
2017-03-23T00:58:07.545Z,0
2017-03-23T00:59:17.792Z,0
2017-03-23T01:00:27.411Z,0
2017-03-23T01:01:37.351Z,0
2017-03-23T01:02:47.595Z,0
2017-03-23T01:03:57.840Z,0
2017-03-23T01:05:07.458Z,0
2017-03-23T01:06:17.710Z,0
2017-03-23T01:07:27.644Z,0
2017-03-23T01:08:37.911Z,0
2017-03-23T01:09:47.225Z,0
2017-03-23T01:10:56.848Z,0
2017-03-23T01:12:07.097Z,0
2017-03-23T01:13:16.723Z,0
2017-03-23T01:14:26.975Z,0
2017-03-23T01:15:37.233Z,0
2017-03-23T01:16:46.854Z,0
2017-03-23T01:17:56.789Z,0
2017-03-23T01:19:07.045Z,0
2017-03-23T01:20:16.983Z,0
2017-03-23T01:21:27.230Z,0
2017-03-23T01:22:37.485Z,0
2017-03-23T01:23:46.790Z,0
2017-03-23T01:24:57.041Z,0
2017-03-23T01:26:07.297Z,0
2017-03-23T01:27:17.554Z,0
2017-03-23T01:28:27.801Z,0
2017-03-23T01:29:38.047Z,0
2017-03-23T01:30:47.673Z,0
2017-03-23T01:31:57.609Z,0
2017-03-23T01:33:07.228Z,0
2017-03-23T01:34:17.167Z,0
2017-03-23T01:35:27.419Z,0
2017-03-23T01:36:37.667Z,0
2017-03-23T01:37:47.917Z,0
2017-03-23T01:38:58.164Z,0
2017-03-23T01:40:08.418Z,0
2017-03-23T01:41:18.667Z,0
2017-03-23T01:42:28.919Z,0
2017-03-23T01:43:39.166Z,0
2017-03-23T01:44:49.099Z,0
2017-03-23T01:45:59.045Z,0
2017-03-23T01:47:09.295Z,0
2017-03-23T01:48:19.548Z,0
2017-03-23T01:49:29.798Z,0
2017-03-23T01:50:40.050Z,0
2017-03-23T01:51:50.305Z,0
2017-03-23T01:53:00.554Z,0
2017-03-23T01:54:10.807Z,0
2017-03-23T01:55:20.741Z,0
2017-03-23T01:56:30.368Z,0
2017-03-23T01:57:40.300Z,0
2017-03-23T01:58:49.928Z,0
2017-03-23T01:59:59.872Z,0
2017-03-23T02:01:10.126Z,0
2017-03-23T02:02:20.375Z,0
2017-03-23T02:03:30.315Z,0
2017-03-23T02:04:40.256Z,0
2017-03-23T02:05:50.190Z,0
2017-03-23T02:07:00.442Z,0
2017-03-23T02:08:10.698Z,0
2017-03-23T02:09:20.948Z,0
2017-03-23T02:10:30.884Z,0
2017-03-23T02:11:40.816Z,0
2017-03-23T02:12:51.059Z,0
2017-03-23T02:14:00.992Z,0
2017-03-23T02:15:11.247Z,0
2017-03-23T02:16:21.496Z,0
2017-03-23T02:17:31.438Z,0
2017-03-23T02:18:41.369Z,0
2017-03-23T02:19:51.611Z,0
2017-03-23T02:21:01.235Z,0
2017-03-23T02:22:11.488Z,0
2017-03-23T02:23:21.735Z,0
2017-03-23T02:24:31.986Z,0
2017-03-23T02:25:41.957Z,0
2017-03-23T02:26:51.890Z,0
2017-03-23T02:28:01.821Z,0
2017-03-23T02:29:11.754Z,0
2017-03-23T02:30:21.999Z,0
2017-03-23T02:31:31.940Z,0
2017-03-23T02:32:41.881Z,0
2017-03-23T02:33:52.135Z,0
2017-03-23T02:35:02.429Z,0
2017-03-23T02:36:12.689Z,0
2017-03-23T02:37:22.624Z,0
2017-03-23T02:38:32.559Z,0
2017-03-23T02:39:42.496Z,0
2017-03-23T02:40:52.431Z,0
2017-03-23T02:42:02.681Z,0
2017-03-23T02:43:12.619Z,0
2017-03-23T02:44:22.870Z,0
2017-03-23T02:45:33.127Z,0
2017-03-23T02:46:43.062Z,0
2017-03-23T02:47:53.311Z,0
2017-03-23T02:49:03.559Z,0
2017-03-23T02:50:13.498Z,0
2017-03-23T02:51:23.755Z,0
2017-03-23T02:52:33.696Z,0
2017-03-23T02:53:43.630Z,0
2017-03-23T02:54:53.567Z,0
2017-03-23T02:56:03.815Z,0
2017-03-23T02:57:14.060Z,0
2017-03-23T02:58:24.311Z,0
2017-03-23T02:59:34.247Z,0
2017-03-23T03:00:44.498Z,0
2017-03-23T03:01:54.433Z,0
2017-03-23T03:03:03.742Z,0
2017-03-23T03:04:14.041Z,0
2017-03-23T03:05:24.292Z,0
2017-03-23T03:06:34.545Z,0
2017-03-23T03:07:44.796Z,0
2017-03-23T03:08:55.052Z,0
2017-03-23T03:10:05.305Z,0
2017-03-23T03:11:15.549Z,0
2017-03-23T03:12:25.169Z,0
2017-03-23T03:13:35.419Z,0
2017-03-23T03:14:45.504Z,0
2017-03-23T03:15:55.754Z,0
2017-03-23T03:17:05.689Z,0
2017-03-23T03:18:15.938Z,0
2017-03-23T03:19:25.874Z,0
2017-03-23T03:20:36.123Z,0
2017-03-23T03:21:45.754Z,0
2017-03-23T03:22:55.374Z,0
2017-03-23T03:24:05.308Z,0
2017-03-23T03:25:15.558Z,0
2017-03-23T03:26:25.806Z,0
2017-03-23T03:27:36.070Z,0
2017-03-23T03:28:46.316Z,0
2017-03-23T03:29:56.252Z,0
2017-03-23T03:31:06.506Z,0
2017-03-23T03:32:16.442Z,0
2017-03-23T03:33:26.686Z,0
2017-03-23T03:34:36.625Z,0
2017-03-23T03:35:46.875Z,0
2017-03-23T03:36:56.813Z,0
2017-03-23T03:38:07.056Z,0
2017-03-23T03:39:16.676Z,0
2017-03-23T03:40:26.606Z,0
2017-03-23T03:41:36.862Z,0
2017-03-23T03:42:46.524Z,0
2017-03-23T03:43:56.149Z,0
2017-03-23T03:45:05.764Z,0
2017-03-23T03:46:15.388Z,0
2017-03-23T03:47:25.332Z,0
2017-03-23T03:48:35.578Z,0
2017-03-23T03:49:45.514Z,0
2017-03-23T03:50:55.449Z,0
2017-03-23T03:52:05.706Z,0
2017-03-23T03:53:15.954Z,0
2017-03-23T03:54:26.233Z,0
2017-03-23T03:55:36.168Z,0
2017-03-23T03:56:46.114Z,0
2017-03-23T03:57:56.055Z,0
2017-03-23T03:59:05.999Z,0
2017-03-23T04:00:16.250Z,0
2017-03-23T04:01:26.547Z,0
2017-03-23T04:02:36.482Z,0
2017-03-23T04:03:46.105Z,0
2017-03-23T04:04:55.724Z,0
2017-03-23T04:06:05.972Z,0
2017-03-23T04:07:16.217Z,0
2017-03-23T04:08:26.466Z,0
2017-03-23T04:09:36.717Z,0
2017-03-23T04:10:46.975Z,0
2017-03-23T04:11:56.904Z,0
2017-03-23T04:13:07.154Z,0
2017-03-23T04:14:17.398Z,0
2017-03-23T04:15:27.340Z,0
2017-03-23T04:16:37.590Z,0
2017-03-23T04:17:47.522Z,0
2017-03-23T04:18:57.453Z,0
2017-03-23T04:20:07.705Z,0
2017-03-23T04:21:17.634Z,0
2017-03-23T04:22:27.882Z,0
2017-03-23T04:23:37.822Z,0
2017-03-23T04:24:47.757Z,0
2017-03-23T04:25:57.065Z,0
2017-03-23T04:27:07.315Z,0
2017-03-23T04:28:17.248Z,0
2017-03-23T04:29:27.182Z,4
2017-03-23T04:30:37.456Z,0
2017-03-23T04:31:47.086Z,0
2017-03-23T04:32:57.025Z,0
2017-03-23T04:34:07.306Z,4
2017-03-23T04:35:17.556Z,0
2017-03-23T04:36:27.802Z,4
2017-03-23T04:37:37.737Z,4
2017-03-23T04:38:47.669Z,4
2017-03-23T04:39:57.605Z,4
2017-03-23T04:41:07.535Z,8
2017-03-23T04:42:17.465Z,8
2017-03-23T04:43:27.715Z,12
2017-03-23T04:44:37.653Z,8
2017-03-23T04:45:47.902Z,12
2017-03-23T04:46:57.840Z,16
2017-03-23T04:48:07.778Z,20
2017-03-23T04:49:17.713Z,20
2017-03-23T04:50:27.332Z,28
2017-03-23T04:51:37.579Z,28
2017-03-23T04:52:47.202Z,36
2017-03-23T04:53:57.133Z,40
2017-03-23T04:55:07.062Z,44
2017-03-23T04:56:17.002Z,48
2017-03-23T04:57:27.257Z,60
2017-03-23T04:58:37.195Z,68
2017-03-23T04:59:47.443Z,76
2017-03-23T05:00:57.066Z,84
2017-03-23T05:02:07.309Z,92
2017-03-23T05:03:17.243Z,100
2017-03-23T05:04:27.494Z,112
2017-03-23T05:05:37.744Z,124
2017-03-23T05:06:48.046Z,136
2017-03-23T05:07:57.661Z,148
2017-03-23T05:09:07.595Z,164
2017-03-23T05:10:17.846Z,180
2017-03-23T05:11:27.778Z,204
2017-03-23T05:12:37.712Z,224
2017-03-23T05:13:47.640Z,252
2017-03-23T05:14:57.576Z,284
2017-03-23T05:16:07.515Z,316
2017-03-23T05:17:17.760Z,344
2017-03-23T05:18:27.695Z,376
2017-03-23T05:19:37.313Z,404
2017-03-23T05:20:47.562Z,432
2017-03-23T05:21:57.497Z,468
2017-03-23T05:23:07.431Z,508
2017-03-23T05:24:17.716Z,540
2017-03-23T05:25:28.005Z,576
2017-03-23T05:26:38.252Z,624
2017-03-23T05:27:48.240Z,668
2017-03-23T05:28:58.491Z,704
2017-03-23T05:30:08.744Z,748
2017-03-23T05:31:18.993Z,788
2017-03-23T05:32:29.281Z,828
2017-03-23T05:33:39.224Z,860
2017-03-23T05:34:49.485Z,900
2017-03-23T05:35:59.732Z,944
2017-03-23T05:37:09.979Z,992
2017-03-23T05:38:20.229Z,1032
2017-03-23T05:39:30.164Z,1064
2017-03-23T05:40:40.421Z,1108
2017-03-23T05:41:50.363Z,1168
2017-03-23T05:43:00.615Z,1236
2017-03-23T05:44:10.562Z,1304
2017-03-23T05:45:20.809Z,1364
2017-03-23T05:46:31.058Z,1412
2017-03-23T05:47:41.305Z,1444
2017-03-23T05:48:50.923Z,1460
2017-03-23T05:50:00.235Z,1492
2017-03-23T05:51:10.486Z,1496
2017-03-23T05:52:20.725Z,1500
2017-03-23T05:53:30.975Z,1552
2017-03-23T05:54:41.227Z,1604
2017-03-23T05:55:51.165Z,1656
2017-03-23T05:57:01.418Z,1700
2017-03-23T05:58:11.349Z,1736
2017-03-23T05:59:21.004Z,1752
2017-03-23T06:00:31.308Z,1776
2017-03-23T06:01:41.568Z,1800
2017-03-23T06:02:51.504Z,1828
2017-03-23T06:04:01.749Z,1868
2017-03-23T06:05:11.684Z,1920
2017-03-23T06:06:21.930Z,2000
2017-03-23T06:07:32.179Z,2072
2017-03-23T06:08:42.118Z,2148
2017-03-23T06:09:52.377Z,2200
2017-03-23T06:11:02.310Z,2244
2017-03-23T06:12:12.248Z,2304
2017-03-23T06:13:22.500Z,2340
2017-03-23T06:14:32.456Z,2368
2017-03-23T06:15:42.699Z,2360
2017-03-23T06:16:52.364Z,2408
2017-03-23T06:18:02.303Z,2476
2017-03-23T06:19:12.556Z,2516
2017-03-23T06:20:22.798Z,2564
2017-03-23T06:21:33.042Z,2592
2017-03-23T06:22:43.284Z,2608
2017-03-23T06:23:53.526Z,2648
2017-03-23T06:25:03.775Z,2688
2017-03-23T06:26:14.021Z,2732
2017-03-23T06:27:24.270Z,2784
2017-03-23T06:28:34.518Z,2796
2017-03-23T06:29:44.460Z,2812
2017-03-23T06:30:54.719Z,2864
2017-03-23T06:32:04.651Z,2912
2017-03-23T06:33:14.275Z,2972
2017-03-23T06:34:24.525Z,3012
2017-03-23T06:35:34.461Z,3056
2017-03-23T06:36:44.405Z,3080
2017-03-23T06:37:54.054Z,3120
2017-03-23T06:39:04.303Z,3144
2017-03-23T06:40:14.556Z,3160
2017-03-23T06:41:24.498Z,3188
2017-03-23T06:42:34.747Z,3232
2017-03-23T06:43:44.991Z,3276
2017-03-23T06:44:54.615Z,3320
2017-03-23T06:46:04.558Z,3368
2017-03-23T06:47:14.804Z,3392
2017-03-23T06:48:24.744Z,3452
2017-03-23T06:49:34.681Z,3516
2017-03-23T06:50:44.617Z,3540
2017-03-23T06:51:54.549Z,3564
2017-03-23T06:53:04.490Z,3608
2017-03-23T06:54:14.428Z,3656
2017-03-23T06:55:24.690Z,3696
2017-03-23T06:56:34.626Z,3752
2017-03-23T06:57:44.890Z,3784
2017-03-23T06:58:55.161Z,3804
2017-03-23T07:00:05.100Z,3848
2017-03-23T07:01:14.410Z,3928
2017-03-23T07:02:24.350Z,3988
2017-03-23T07:03:34.289Z,4056
2017-03-23T07:04:44.540Z,4112
2017-03-23T07:05:53.852Z,4120
2017-03-23T07:07:04.110Z,4108
2017-03-23T07:08:14.077Z,4128
2017-03-23T07:09:23.746Z,4152
2017-03-23T07:10:33.994Z,4200
2017-03-23T07:11:43.614Z,4288
2017-03-23T07:12:53.864Z,4416
2017-03-23T07:14:04.130Z,4572
2017-03-23T07:15:14.385Z,4684
2017-03-23T07:16:24.642Z,4760
2017-03-23T07:17:34.892Z,4828
2017-03-23T07:18:44.825Z,4904
2017-03-23T07:19:54.765Z,5004
2017-03-23T07:21:04.706Z,5076
2017-03-23T07:22:14.959Z,5140
2017-03-23T07:23:25.210Z,5296
2017-03-23T07:24:34.838Z,5424
2017-03-23T07:25:44.460Z,5480
2017-03-23T07:26:54.400Z,5508
2017-03-23T07:28:04.337Z,5468
2017-03-23T07:29:14.591Z,5392
2017-03-23T07:30:24.533Z,5324
2017-03-23T07:31:34.791Z,5288
2017-03-23T07:32:44.731Z,5336
2017-03-23T07:33:54.670Z,5468
2017-03-23T07:35:04.620Z,5572
2017-03-23T07:36:14.564Z,5712
2017-03-23T07:37:24.519Z,5796
2017-03-23T07:38:34.769Z,5864
2017-03-23T07:39:45.021Z,5908
2017-03-23T07:40:54.653Z,5928
2017-03-23T07:42:04.597Z,5940
2017-03-23T07:43:14.851Z,5936
2017-03-23T07:44:24.798Z,5956
2017-03-23T07:45:35.047Z,6004
2017-03-23T07:46:44.986Z,6000
2017-03-23T07:47:54.929Z,6032
2017-03-23T07:49:05.177Z,6068
2017-03-23T07:50:15.424Z,6116
2017-03-23T07:51:25.679Z,6164
2017-03-23T07:52:35.628Z,6212
2017-03-23T07:53:45.883Z,6236
2017-03-23T07:54:55.830Z,6280
2017-03-23T07:56:06.081Z,6276
2017-03-23T07:57:16.014Z,6232
2017-03-23T07:58:25.954Z,6208
2017-03-23T07:59:36.205Z,6112
2017-03-23T08:00:46.143Z,5972
2017-03-23T08:01:56.080Z,5892
2017-03-23T08:03:06.338Z,5868
2017-03-23T08:04:15.961Z,5848
2017-03-23T08:05:26.219Z,5872
2017-03-23T08:06:36.478Z,5908
2017-03-23T08:07:46.726Z,5960
2017-03-23T08:08:56.978Z,5960
2017-03-23T08:10:07.232Z,5924
2017-03-23T08:11:17.175Z,5884
2017-03-23T08:12:27.113Z,5924
2017-03-23T08:13:36.426Z,5968
2017-03-23T08:14:46.675Z,5968
2017-03-23T08:15:56.927Z,5992
2017-03-23T08:17:06.873Z,6032
2017-03-23T08:18:17.126Z,6104
2017-03-23T08:19:27.063Z,6156
2017-03-23T08:20:37.317Z,6196
2017-03-23T08:21:47.583Z,6236
2017-03-23T08:22:57.831Z,6288
2017-03-23T08:24:08.083Z,6376
2017-03-23T08:25:18.023Z,6464
2017-03-23T08:26:27.647Z,6568
2017-03-23T08:27:37.587Z,6680
2017-03-23T08:28:47.844Z,6800
2017-03-23T08:29:57.782Z,6860
2017-03-23T08:31:07.719Z,6880
2017-03-23T08:32:17.968Z,6908
2017-03-23T08:33:28.226Z,6968
2017-03-23T08:34:38.481Z,7056
2017-03-23T08:35:48.732Z,7148
2017-03-23T08:36:58.360Z,7236
2017-03-23T08:38:08.609Z,7336
2017-03-23T08:39:18.905Z,7508
2017-03-23T08:40:28.843Z,7708
2017-03-23T08:41:39.093Z,7892
2017-03-23T08:42:49.347Z,8048
2017-03-23T08:43:59.286Z,8204
2017-03-23T08:45:09.553Z,8300
2017-03-23T08:46:19.494Z,8348
2017-03-23T08:47:28.802Z,8392
2017-03-23T08:48:39.059Z,8472
2017-03-23T08:49:49.309Z,8528
2017-03-23T08:50:59.562Z,8572
2017-03-23T08:52:09.815Z,8612
2017-03-23T08:53:20.124Z,8640
2017-03-23T08:54:30.380Z,8648
2017-03-23T08:55:40.643Z,8632
2017-03-23T08:56:50.583Z,8592
2017-03-23T08:58:00.833Z,8560
2017-03-23T08:59:10.765Z,8548
2017-03-23T09:00:20.713Z,8532
2017-03-23T09:01:30.971Z,8440
2017-03-23T09:02:41.232Z,8376
2017-03-23T09:03:51.485Z,8300
2017-03-23T09:05:01.745Z,8252
2017-03-23T09:06:12.003Z,8224
2017-03-23T09:07:22.258Z,8232
2017-03-23T09:08:31.882Z,8268
2017-03-23T09:09:42.139Z,8304
2017-03-23T09:10:52.393Z,8340
2017-03-23T09:12:02.341Z,8400
2017-03-23T09:13:12.597Z,8456
2017-03-23T09:14:22.849Z,8512
2017-03-23T09:15:33.122Z,8548
2017-03-23T09:16:43.371Z,8556
2017-03-23T09:17:53.307Z,8524
2017-03-23T09:19:03.248Z,8524
2017-03-23T09:20:12.876Z,8572
2017-03-23T09:21:23.126Z,8660
2017-03-23T09:22:33.377Z,8720
2017-03-23T09:23:43.641Z,8724
2017-03-23T09:24:53.903Z,8684
2017-03-23T09:26:04.154Z,8672
2017-03-23T09:27:14.416Z,8672
2017-03-23T09:28:24.363Z,8660
2017-03-23T09:29:34.622Z,8700
2017-03-23T09:30:44.578Z,8752
2017-03-23T09:31:54.831Z,8812
2017-03-23T09:33:05.080Z,8840
2017-03-23T09:34:15.022Z,8792
2017-03-23T09:35:24.961Z,8676
2017-03-23T09:36:34.934Z,8552
2017-03-23T09:37:45.183Z,8432
2017-03-23T09:38:55.129Z,8216
2017-03-23T09:40:05.066Z,8072
2017-03-23T09:41:14.691Z,7760
2017-03-23T09:42:24.630Z,7796
2017-03-23T09:43:34.569Z,7716
2017-03-23T09:44:44.816Z,7692
2017-03-23T09:45:54.758Z,7836
2017-03-23T09:47:05.010Z,7824
2017-03-23T09:48:15.273Z,7840
2017-03-23T09:49:25.245Z,7892
2017-03-23T09:50:35.505Z,7912
2017-03-23T09:51:45.761Z,7944
2017-03-23T09:52:55.080Z,7936
2017-03-23T09:54:05.023Z,7984
2017-03-23T09:55:14.652Z,8084
2017-03-23T09:56:24.285Z,8192
2017-03-23T09:57:34.540Z,8284
2017-03-23T09:58:44.481Z,8356
2017-03-23T09:59:54.730Z,8436
2017-03-23T10:01:04.982Z,8516
2017-03-23T10:02:15.235Z,8644
2017-03-23T10:03:25.189Z,8732
2017-03-23T10:04:35.132Z,8872
2017-03-23T10:05:45.388Z,8968
2017-03-23T10:06:55.643Z,9084
2017-03-23T10:08:05.898Z,9100
2017-03-23T10:09:15.838Z,9160
2017-03-23T10:10:26.091Z,9240
2017-03-23T10:11:36.035Z,9360
2017-03-23T10:12:45.977Z,9440
2017-03-23T10:13:55.912Z,9504
2017-03-23T10:15:06.166Z,9480
2017-03-23T10:16:16.460Z,9444
2017-03-23T10:17:26.398Z,9440
2017-03-23T10:18:36.340Z,9404
2017-03-23T10:19:46.597Z,9432
2017-03-23T10:20:56.849Z,9432
2017-03-23T10:22:06.795Z,9420
2017-03-23T10:23:17.048Z,9660
2017-03-23T10:24:27.315Z,9700
2017-03-23T10:25:37.608Z,9752
2017-03-23T10:26:47.869Z,9764
2017-03-23T10:27:58.123Z,9708
2017-03-23T10:29:08.381Z,9484
2017-03-23T10:30:18.637Z,9120
2017-03-23T10:31:28.261Z,8740
2017-03-23T10:32:38.523Z,8408
2017-03-23T10:33:48.462Z,8036
2017-03-23T10:34:58.719Z,7612
2017-03-23T10:36:08.973Z,7256
2017-03-23T10:37:19.228Z,6896
2017-03-23T10:38:29.166Z,6576
2017-03-23T10:39:39.420Z,6264
2017-03-23T10:40:49.046Z,6052
2017-03-23T10:41:58.675Z,6052
2017-03-23T10:43:08.932Z,5836
2017-03-23T10:44:18.869Z,5480
2017-03-23T10:45:29.122Z,5236
2017-03-23T10:46:39.375Z,5712
2017-03-23T10:47:49.319Z,5572
2017-03-23T10:48:59.271Z,5484
2017-03-23T10:50:09.524Z,5400
2017-03-23T10:51:19.464Z,5392
2017-03-23T10:52:29.712Z,5284
2017-03-23T10:53:39.649Z,5348
2017-03-23T10:54:49.593Z,5152
2017-03-23T10:55:59.539Z,5056
2017-03-23T10:57:09.796Z,5116
2017-03-23T10:58:20.048Z,5068
2017-03-23T10:59:30.329Z,5056
2017-03-23T11:00:40.584Z,5060
2017-03-23T11:01:50.837Z,5024
2017-03-23T11:03:01.084Z,5056
2017-03-23T11:04:11.343Z,5080
2017-03-23T11:05:21.600Z,5084
2017-03-23T11:06:31.855Z,5068
2017-03-23T11:07:42.110Z,5088
2017-03-23T11:08:52.046Z,5108
2017-03-23T11:10:02.292Z,5148
2017-03-23T11:11:12.235Z,5200
2017-03-23T11:12:22.173Z,5600
2017-03-23T11:13:34.776Z,6540
2017-03-23T11:14:45.029Z,27424
2017-03-23T11:15:55.285Z,46560
2017-03-23T11:17:05.577Z,48480
2017-03-23T11:18:15.829Z,49632
2017-03-23T11:19:25.772Z,51648
2017-03-23T11:20:35.719Z,50592
2017-03-23T11:21:45.985Z,49888
2017-03-23T11:22:56.235Z,47552
2017-03-23T11:24:06.501Z,48096
2017-03-23T11:25:16.443Z,51424
2017-03-23T11:26:26.699Z,51712
2017-03-23T11:27:36.955Z,50240
2017-03-23T11:28:46.903Z,49568
2017-03-23T11:29:57.162Z,47168
2017-03-23T11:31:07.113Z,46400
2017-03-23T11:32:17.372Z,48736
2017-03-23T11:33:27.641Z,49312
2017-03-23T11:34:37.905Z,54944
2017-03-23T11:35:48.203Z,52896
2017-03-23T11:36:58.503Z,51424
2017-03-23T11:38:08.770Z,52096
2017-03-23T11:39:19.033Z,49856
2017-03-23T11:40:28.994Z,51936
2017-03-23T11:41:38.949Z,51424
2017-03-23T11:42:49.217Z,47808
2017-03-23T11:43:59.170Z,49344
2017-03-23T11:45:09.440Z,46432
2017-03-23T11:46:19.073Z,44768
2017-03-23T11:47:29.028Z,47840
2017-03-23T11:48:38.984Z,48768
2017-03-23T11:49:48.938Z,45760
2017-03-23T11:50:59.211Z,47424
2017-03-23T11:52:09.482Z,46016
2017-03-23T11:53:19.435Z,43904
2017-03-23T11:54:29.385Z,42624
2017-03-23T11:55:39.655Z,47648
2017-03-23T11:56:49.621Z,47776
2017-03-23T11:57:59.895Z,44608
2017-03-23T11:59:09.850Z,46976
2017-03-23T12:00:20.117Z,46784
2017-03-23T12:01:30.077Z,43808
2017-03-23T12:02:40.038Z,44224
2017-03-23T12:03:50.307Z,45792
2017-03-23T12:05:00.581Z,46624
2017-03-23T12:06:10.537Z,47296
2017-03-23T12:07:20.493Z,46656
2017-03-23T12:08:30.452Z,48480
2017-03-23T12:09:40.415Z,44768
2017-03-23T12:10:50.685Z,46752
2017-03-23T12:12:00.960Z,50656
2017-03-23T12:13:11.227Z,51488
2017-03-23T12:14:21.181Z,51328
2017-03-23T12:15:30.823Z,52288
2017-03-23T12:16:41.106Z,49312
2017-03-23T12:17:51.375Z,46624
2017-03-23T12:19:01.330Z,48064
2017-03-23T12:20:11.288Z,46336
2017-03-23T12:21:21.260Z,43808
2017-03-23T12:22:30.908Z,42208
2017-03-23T12:23:40.878Z,37952
2017-03-23T12:24:51.158Z,34752
2017-03-23T12:26:01.433Z,30912
2017-03-23T12:27:11.713Z,31488
2017-03-23T12:28:21.712Z,28960
2017-03-23T12:29:31.674Z,28000
2017-03-23T12:30:41.640Z,27904
2017-03-23T12:31:51.606Z,28864
2017-03-23T12:33:01.883Z,28704
2017-03-23T12:34:11.841Z,27872
2017-03-23T12:35:22.118Z,27456
2017-03-23T12:36:32.078Z,26464
2017-03-23T12:37:42.366Z,26016
2017-03-23T12:38:52.324Z,25088
2017-03-23T12:40:02.595Z,25312
2017-03-23T12:41:12.556Z,25856
2017-03-23T12:42:22.833Z,25344
2017-03-23T12:43:33.108Z,24832
2017-03-23T12:44:43.382Z,24608
2017-03-23T12:45:53.344Z,25536
2017-03-23T12:47:03.625Z,25888
2017-03-23T12:48:13.895Z,24576
2017-03-23T12:49:23.851Z,24768
2017-03-23T12:50:33.810Z,24672
2017-03-23T12:51:43.773Z,23712
2017-03-23T12:52:54.042Z,24608
2017-03-23T12:54:04.319Z,26048
2017-03-23T12:55:14.287Z,25856
2017-03-23T12:56:24.558Z,25824
2017-03-23T12:57:34.879Z,25056
2017-03-23T12:58:44.527Z,25600
2017-03-23T12:59:54.483Z,25664
2017-03-23T13:01:04.130Z,25696
2017-03-23T13:02:14.097Z,26048
2017-03-23T13:03:24.055Z,25856
2017-03-23T13:04:34.023Z,25664
2017-03-23T13:05:44.310Z,26720
2017-03-23T13:06:54.628Z,26976
2017-03-23T13:08:04.593Z,27200
2017-03-23T13:09:14.864Z,28000
2017-03-23T13:10:24.824Z,28512
2017-03-23T13:11:35.096Z,29568
2017-03-23T13:12:45.364Z,30752
2017-03-23T13:13:55.321Z,30624
2017-03-23T13:15:05.289Z,34368
2017-03-23T13:16:15.568Z,35968
2017-03-23T13:17:25.525Z,35456
2017-03-23T13:18:35.171Z,39616
2017-03-23T13:19:45.130Z,34464
2017-03-23T13:20:55.403Z,34624
2017-03-23T13:22:05.362Z,41440
2017-03-23T13:23:15.650Z,36256
2017-03-23T13:24:25.917Z,37568
2017-03-23T13:25:35.564Z,42656
2017-03-23T13:26:45.527Z,39008
2017-03-23T13:27:55.801Z,44608
2017-03-23T13:29:05.797Z,38752
2017-03-23T13:30:16.068Z,39808
2017-03-23T13:31:26.349Z,39200
2017-03-23T13:32:36.314Z,31264
2017-03-23T13:33:45.648Z,25664
2017-03-23T13:34:55.918Z,24160
2017-03-23T13:36:06.222Z,19968
2017-03-23T13:37:16.499Z,30304
2017-03-23T13:38:26.455Z,29152
2017-03-23T13:39:36.727Z,26112
2017-03-23T13:40:46.688Z,32000
2017-03-23T13:41:56.959Z,19040
2017-03-23T13:43:07.233Z,13400
2017-03-23T13:44:17.203Z,13512
2017-03-23T13:45:27.480Z,19296
2017-03-23T13:46:37.759Z,24992
2017-03-23T13:47:47.719Z,23776
2017-03-23T13:48:57.672Z,20384
2017-03-23T13:50:07.941Z,21152
2017-03-23T13:51:18.224Z,31456
2017-03-23T13:52:28.494Z,30912
2017-03-23T13:53:38.766Z,24576
2017-03-23T13:54:48.720Z,21312
2017-03-23T13:55:58.986Z,18592
2017-03-23T13:57:08.944Z,20992
2017-03-23T13:58:19.216Z,18496
2017-03-23T13:59:29.170Z,20000
2017-03-23T14:00:39.136Z,30272
2017-03-23T14:01:49.409Z,22688
2017-03-23T14:02:59.672Z,13684
2017-03-23T14:04:09.313Z,11828
2017-03-23T14:05:19.265Z,16896
2017-03-23T14:06:29.216Z,16088
2017-03-23T14:07:39.172Z,10592
2017-03-23T14:08:49.438Z,9920
2017-03-23T14:09:59.708Z,14508
2017-03-23T14:11:09.978Z,13944
2017-03-23T14:12:19.619Z,19424
2017-03-23T14:13:29.891Z,42560
2017-03-23T14:14:40.160Z,46720
2017-03-23T14:15:50.429Z,29440
2017-03-23T14:17:00.075Z,22528
2017-03-23T14:18:10.042Z,19328
2017-03-23T14:19:19.679Z,18784
2017-03-23T14:20:29.006Z,26784
2017-03-23T14:21:38.960Z,36192
2017-03-23T14:22:48.917Z,26976
2017-03-23T14:23:59.193Z,25376
2017-03-23T14:25:09.464Z,34624
2017-03-23T14:26:19.731Z,39776
2017-03-23T14:27:30.002Z,31360
2017-03-23T14:28:39.956Z,29472
2017-03-23T14:29:49.911Z,32000
2017-03-23T14:30:59.870Z,39520
2017-03-23T14:32:09.821Z,36544
2017-03-23T14:33:19.460Z,35072
2017-03-23T14:34:29.418Z,37696
2017-03-23T14:35:39.371Z,36896
2017-03-23T14:36:49.329Z,38752
2017-03-23T14:37:59.592Z,31488
2017-03-23T14:39:09.873Z,35136
2017-03-23T14:40:19.510Z,40928
2017-03-23T14:41:29.461Z,46048
2017-03-23T14:42:39.413Z,52512
2017-03-23T14:43:49.368Z,53056
2017-03-23T14:44:59.635Z,55072
2017-03-23T14:46:09.915Z,52480
2017-03-23T14:47:19.556Z,52960
2017-03-23T14:48:29.821Z,52672
2017-03-23T14:49:39.780Z,51776
2017-03-23T14:50:50.051Z,52608
2017-03-23T14:52:00.023Z,52128
2017-03-23T14:53:09.673Z,51424
2017-03-23T14:54:19.627Z,49696
2017-03-23T14:55:29.584Z,47008
2017-03-23T14:56:39.539Z,28128
2017-03-23T14:57:49.814Z,40320
2017-03-23T14:59:00.084Z,45568
2017-03-23T15:00:10.361Z,47840
2017-03-23T15:01:20.006Z,47552
2017-03-23T15:02:29.963Z,48992
2017-03-23T15:03:40.236Z,46624
2017-03-23T15:04:50.546Z,46624
2017-03-23T15:06:00.514Z,46720
2017-03-23T15:07:10.177Z,46368
2017-03-23T15:08:19.825Z,47584
2017-03-23T15:09:30.100Z,47264
2017-03-23T15:10:40.372Z,47520
2017-03-23T15:11:50.646Z,45184
2017-03-23T15:13:00.917Z,40736
2017-03-23T15:14:10.879Z,40928
2017-03-23T15:15:21.158Z,42816
2017-03-23T15:16:31.433Z,43072
2017-03-23T15:17:41.073Z,41152
2017-03-23T15:18:51.342Z,36384
2017-03-23T15:20:00.985Z,33600
2017-03-23T15:21:11.264Z,33952
2017-03-23T15:22:20.910Z,36544
2017-03-23T15:23:30.554Z,35488
2017-03-23T15:24:40.512Z,34528
2017-03-23T15:25:50.785Z,36000
2017-03-23T15:27:01.056Z,39264
2017-03-23T15:28:11.330Z,38208
2017-03-23T15:29:21.610Z,37632
2017-03-23T15:30:31.571Z,35776
2017-03-23T15:31:41.841Z,36704
2017-03-23T15:32:52.140Z,38368
2017-03-23T15:34:02.411Z,39648
2017-03-23T15:35:12.362Z,37920
2017-03-23T15:36:22.631Z,36736
2017-03-23T15:37:32.910Z,36224
2017-03-23T15:38:43.185Z,36672
2017-03-23T15:39:53.455Z,35968
2017-03-23T15:41:03.101Z,36256
2017-03-23T15:42:13.373Z,34560
2017-03-23T15:43:23.645Z,27168
2017-03-23T15:44:33.598Z,19872
2017-03-23T15:45:43.243Z,12884
2017-03-23T15:46:53.512Z,10292
2017-03-23T15:48:03.788Z,12176
2017-03-23T15:49:13.112Z,13984
2017-03-23T15:50:23.071Z,13984
2017-03-23T15:51:32.722Z,12392
2017-03-23T15:52:42.676Z,10804
2017-03-23T15:53:52.942Z,9332